Time;durP1;ratioP1;P1;durP2;ratioP2;P2;SDS_P1;SDS_P2;PMS_P1;PMS_P2;Temp;Humidity;BMP_temperature;BMP_pressure;BME280_temperature;BME280_humidity;BME280_pressure;Samples;Min_cycle;Max_cycle;Signal;HPM_P1;HPM_P2
2023/03/21 00:01:32;;;;;;;2.10;1.90;;;;;;;;;;5127030;27;20055;-52
2023/03/21 00:03:59;;;;;;;1.88;1.70;;;;;;;;;;5127698;27;20047;-51
2023/03/21 00:06:25;;;;;;;2.78;1.80;;;;;;;;;;5127881;27;20022;-48
2023/03/21 00:08:52;;;;;;;3.45;2.45;;;;;;;;;;5127649;27;20031;-51
2023/03/21 00:11:18;;;;;;;4.30;2.67;;;;;;;;;;5127435;27;20209;-52
2023/03/21 00:13:44;;;;;;;3.83;2.50;;;;;;;;;;5127406;27;20046;-49
2023/03/21 00:16:14;;;;;;;4.85;2.80;;;;;;;;;;5128190;27;20079;-48
2023/03/21 00:18:45;;;;;;;4.65;2.75;;;;;;;;;;5128058;27;20091;-49
2023/03/21 00:21:16;;;;;;;4.75;2.53;;;;;;;;;;5127864;27;20695;-48
2023/03/21 00:23:42;;;;;;;4.40;2.35;;;;;;;;;;5126806;27;20031;-53
2023/03/21 00:26:09;;;;;;;3.72;2.47;;;;;;;;;;5128672;27;20557;-51
2023/03/21 00:28:36;;;;;;;2.78;2.30;;;;;;;;;;5127359;27;20506;-50
2023/03/21 00:31:02;;;;;;;3.08;2.10;;;;;;;;;;5126826;27;20034;-51
2023/03/21 00:33:28;;;;;;;4.65;2.65;;;;;;;;;;5126937;27;20110;-49
2023/03/21 00:35:55;;;;;;;4.97;3.45;;;;;;;;;;5126916;27;20507;-51
2023/03/21 00:38:21;;;;;;;19.90;9.95;;;;;;;;;;5127281;27;20027;-50
2023/03/21 00:40:48;;;;;;;20.98;9.85;;;;;;;;;;5127081;27;20102;-49
2023/03/21 00:43:16;;;;;;;13.98;7.43;;;;;;;;;;5127127;27;20055;-49
2023/03/21 00:45:42;;;;;;;11.07;5.72;;;;;;;;;;5127342;27;20019;-50
2023/03/21 00:48:08;;;;;;;8.48;4.45;;;;;;;;;;5127562;27;20165;-48
2023/03/21 00:50:36;;;;;;;5.72;3.55;;;;;;;;;;5126536;27;20106;-50
2023/03/21 00:53:02;;;;;;;4.75;3.10;;;;;;;;;;5126881;27;20019;-51
2023/03/21 00:55:28;;;;;;;5.60;3.33;;;;;;;;;;5126774;27;20167;-49
2023/03/21 00:57:54;;;;;;;5.50;3.15;;;;;;;;;;5126584;27;20053;-52
2023/03/21 01:00:21;;;;;;;4.63;2.85;;;;;;;;;;5126537;27;20102;-50
2023/03/21 01:02:56;;;;;;;3.88;2.78;;;;;;;;;;5126719;27;20098;-49
2023/03/21 06:12:56;;;;;;;5.32;3.58;;;;;;;;;;5123788;27;20046;-48
2023/03/21 06:15:23;;;;;;;7.13;3.58;;;;;;;;;;5127787;27;20034;-52
2023/03/21 06:17:50;;;;;;;4.22;3.13;;;;;;;;;;5129224;28;20022;-50
2023/03/21 06:20:16;;;;;;;5.07;2.75;;;;;;;;;;5128990;27;20038;-50
2023/03/21 06:22:43;;;;;;;4.47;2.80;;;;;;;;;;5132457;27;20153;-47
2023/03/21 06:25:10;;;;;;;3.63;2.60;;;;;;;;;;5132877;27;20023;-50
2023/03/21 06:27:36;;;;;;;3.58;2.20;;;;;;;;;;5132601;27;20019;-50
2023/03/21 06:30:02;;;;;;;2.25;1.90;;;;;;;;;;5132486;27;20152;-50
2023/03/21 06:32:28;;;;;;;2.65;1.88;;;;;;;;;;5132087;27;20027;-51
2023/03/21 06:34:54;;;;;;;2.47;1.98;;;;;;;;;;5132667;27;20114;-52
2023/03/21 06:37:20;;;;;;;3.08;1.90;;;;;;;;;;5132785;27;20054;-49
2023/03/21 06:39:46;;;;;;;2.72;1.83;;;;;;;;;;5132618;27;20016;-50
2023/03/21 06:42:13;;;;;;;2.72;1.50;;;;;;;;;;5132024;27;20024;-50
2023/03/21 06:44:39;;;;;;;2.50;1.67;;;;;;;;;;5133108;27;20027;-50
2023/03/21 06:47:05;;;;;;;3.28;1.88;;;;;;;;;;5131760;27;20027;-52
2023/03/21 06:49:32;;;;;;;2.55;1.90;;;;;;;;;;5131887;27;20027;-50
2023/03/21 06:51:58;;;;;;;2.10;1.73;;;;;;;;;;5130881;27;20053;-48
2023/03/21 06:54:24;;;;;;;2.63;2.00;;;;;;;;;;5131788;27;20525;-51
2023/03/21 06:56:50;;;;;;;2.30;1.90;;;;;;;;;;5132109;27;20034;-50
2023/03/21 06:59:16;;;;;;;2.03;1.67;;;;;;;;;;5131506;27;20039;-52
2023/03/21 07:01:42;;;;;;;2.38;2.00;;;;;;;;;;5131666;27;20045;-51
2023/03/21 07:04:09;;;;;;;2.80;2.00;;;;;;;;;;5132281;27;20019;-48
2023/03/21 07:06:36;;;;;;;2.40;2.13;;;;;;;;;;5132068;27;20406;-52
2023/03/21 07:09:02;;;;;;;2.55;2.08;;;;;;;;;;5132154;27;20023;-48
2023/03/21 07:11:28;;;;;;;3.58;2.22;;;;;;;;;;5131612;27;20527;-49
2023/03/21 07:13:54;;;;;;;2.83;1.98;;;;;;;;;;5131800;27;20083;-49
2023/03/21 07:16:20;;;;;;;1.95;1.75;;;;;;;;;;5131812;27;20517;-50
2023/03/21 07:18:47;;;;;;;2.83;2.03;;;;;;;;;;5131794;27;20037;-51
2023/03/21 07:21:13;;;;;;;2.85;2.17;;;;;;;;;;5131370;27;20678;-49
2023/03/21 07:23:39;;;;;;;3.17;2.25;;;;;;;;;;5131862;27;20071;-51
2023/03/21 07:26:05;;;;;;;2.78;1.80;;;;;;;;;;5131638;27;20065;-51
2023/03/21 07:28:32;;;;;;;2.78;2.03;;;;;;;;;;5130574;27;20781;-49
2023/03/21 07:31:00;;;;;;;2.05;1.83;;;;;;;;;;5131378;27;20030;-49
2023/03/21 07:33:26;;;;;;;1.88;1.70;;;;;;;;;;5130669;27;20432;-51
2023/03/21 07:35:53;;;;;;;3.08;2.00;;;;;;;;;;5128199;27;20106;-49
2023/03/21 07:38:20;;;;;;;2.55;1.92;;;;;;;;;;5126716;27;20034;-48
2023/03/21 07:40:46;;;;;;;3.40;2.13;;;;;;;;;;5125027;27;20031;-48
2023/03/21 07:43:12;;;;;;;2.90;1.98;;;;;;;;;;5128901;27;20157;-52
2023/03/21 07:45:41;;;;;;;2.42;1.70;;;;;;;;;;5131273;27;20016;-49
2023/03/21 07:48:07;;;;;;;3.00;1.98;;;;;;;;;;5126698;27;20080;-53
2023/03/21 07:50:33;;;;;;;2.80;2.00;;;;;;;;;;5130393;27;20038;-51
2023/03/21 07:52:59;;;;;;;2.05;1.55;;;;;;;;;;5128834;27;20127;-50
2023/03/21 07:55:26;;;;;;;2.47;1.80;;;;;;;;;;5130212;27;20027;-50
2023/03/21 07:57:52;;;;;;;2.65;1.90;;;;;;;;;;5128575;27;20794;-50
2023/03/21 08:00:21;;;;;;;3.00;2.00;;;;;;;;;;5130039;27;20099;-50
2023/03/21 08:02:58;;;;;;;2.10;1.60;;;;;;;;;;5128979;27;20031;-50
2023/03/21 08:05:25;;;;;;;1.90;1.55;;;;;;;;;;5130772;27;20382;-50
2023/03/21 08:07:51;;;;;;;2.03;1.45;;;;;;;;;;5128315;27;20031;-50
2023/03/21 08:10:18;;;;;;;1.92;1.38;;;;;;;;;;5129124;27;20027;-47
2023/03/21 08:12:44;;;;;;;2.17;1.55;;;;;;;;;;5126229;27;20031;-51
2023/03/21 08:15:11;;;;;;;2.13;1.45;;;;;;;;;;5128414;27;20031;-50
2023/03/21 08:17:39;;;;;;;1.95;1.65;;;;;;;;;;5125195;27;20046;-52
2023/03/21 08:20:09;;;;;;;1.70;1.50;;;;;;;;;;5128019;27;20023;-48
2023/03/21 08:22:36;;;;;;;2.20;1.50;;;;;;;;;;5127026;27;20046;-48
2023/03/21 08:25:06;;;;;;;2.38;1.50;;;;;;;;;;5127900;27;20027;-50
2023/03/21 08:27:33;;;;;;;1.77;1.25;;;;;;;;;;5126715;27;20027;-51
2023/03/21 08:30:00;;;;;;;2.75;1.50;;;;;;;;;;5127901;27;20031;-50
2023/03/21 08:32:30;;;;;;;1.70;1.48;;;;;;;;;;5127151;27;20396;-50
2023/03/21 08:34:58;;;;;;;2.30;1.40;;;;;;;;;;5126671;27;20034;-49
2023/03/21 08:37:24;;;;;;;1.80;1.40;;;;;;;;;;5127250;27;20595;-52
2023/03/21 08:39:50;;;;;;;1.38;1.27;;;;;;;;;;5122644;27;20023;-50
2023/03/21 08:42:16;;;;;;;1.85;1.25;;;;;;;;;;5118883;27;20019;-49
2023/03/21 08:44:42;;;;;;;1.67;1.20;;;;;;;;;;5126583;27;20583;-51
2023/03/21 08:47:08;;;;;;;1.63;1.27;;;;;;;;;;5125681;27;20027;-51
2023/03/21 08:49:35;;;;;;;1.30;1.20;;;;;;;;;;5126625;27;20043;-49
2023/03/21 08:52:01;;;;;;;1.30;1.20;;;;;;;;;;5125459;27;20027;-49
2023/03/21 08:54:27;;;;;;;1.55;1.45;;;;;;;;;;5126657;27;20023;-50
2023/03/21 08:56:53;;;;;;;1.10;1.00;;;;;;;;;;5127532;27;20057;-48
2023/03/21 08:59:20;;;;;;;1.23;0.93;;;;;;;;;;5127095;27;20033;-50
2023/03/21 09:01:46;;;;;;;1.45;1.30;;;;;;;;;;5127020;27;20114;-49
2023/03/21 09:04:12;;;;;;;1.27;1.17;;;;;;;;;;5126188;27;20023;-51
2023/03/21 09:06:48;;;;;;;1.02;0.93;;;;;;;;;;5126861;27;20023;-50
2023/03/21 09:09:14;;;;;;;1.00;0.88;;;;;;;;;;5126378;27;20035;-52
2023/03/21 09:11:41;;;;;;;0.80;0.80;;;;;;;;;;5127711;27;20027;-53
2023/03/21 09:14:07;;;;;;;0.75;0.68;;;;;;;;;;5125438;27;20041;-52
2023/03/21 09:16:34;;;;;;;1.13;1.00;;;;;;;;;;5126784;27;20569;-52
2023/03/21 09:19:03;;;;;;;1.35;0.90;;;;;;;;;;5124514;27;20023;-49
2023/03/21 09:21:30;;;;;;;1.15;0.90;;;;;;;;;;5127410;27;20019;-50
2023/03/21 09:23:58;;;;;;;1.30;0.95;;;;;;;;;;5122132;27;20030;-51
2023/03/21 09:26:26;;;;;;;1.02;0.93;;;;;;;;;;5103395;28;20019;-51
2023/03/21 09:28:52;;;;;;;1.25;1.13;;;;;;;;;;5123526;27;20529;-48
2023/03/21 09:31:22;;;;;;;1.33;1.00;;;;;;;;;;5113320;27;20517;-53
2023/03/21 09:33:50;;;;;;;0.80;0.80;;;;;;;;;;5110731;28;20038;-53
2023/03/21 09:36:20;;;;;;;1.25;0.90;;;;;;;;;;5125978;28;20027;-50
2023/03/21 09:38:47;;;;;;;1.17;0.93;;;;;;;;;;5117902;28;20028;-50
2023/03/21 09:41:33;;;;;;;1.13;1.00;;;;;;;;;;5106911;28;20027;-52
2023/03/21 09:44:11;;;;;;;0.75;0.73;;;;;;;;;;5109056;28;20096;-49
2023/03/21 09:46:37;;;;;;;0.82;0.80;;;;;;;;;;5104919;28;20394;-52
2023/03/21 09:49:11;;;;;;;0.70;0.70;;;;;;;;;;5104172;28;20031;-49
2023/03/21 09:51:44;;;;;;;0.90;0.85;;;;;;;;;;5105143;28;20510;-50
2023/03/21 09:54:46;;;;;;;0.95;0.93;;;;;;;;;;5103943;28;20062;-49
2023/03/21 09:57:18;;;;;;;0.70;0.70;;;;;;;;;;5005134;28;20038;-48
2023/03/21 09:59:45;;;;;;;1.08;0.80;;;;;;;;;;5107138;27;20039;-51
2023/03/21 10:02:21;;;;;;;1.10;0.82;;;;;;;;;;5128035;27;20076;-49
2023/03/21 10:04:48;;;;;;;0.73;0.70;;;;;;;;;;5123590;27;20374;-51
2023/03/21 10:07:17;;;;;;;0.68;0.68;;;;;;;;;;5127391;27;20023;-51
2023/03/21 10:09:43;;;;;;;0.82;0.75;;;;;;;;;;5109557;27;20114;-53
2023/03/21 10:12:16;;;;;;;0.85;0.85;;;;;;;;;;5107552;27;20042;-48
2023/03/21 10:14:45;;;;;;;1.10;1.00;;;;;;;;;;5103601;28;20063;-49
2023/03/21 10:17:17;;;;;;;0.73;0.70;;;;;;;;;;5111013;27;20076;-52
2023/03/21 10:19:45;;;;;;;0.70;0.70;;;;;;;;;;5105428;28;20035;-50
2023/03/21 10:22:11;;;;;;;0.60;0.60;;;;;;;;;;5106202;27;20114;-53
2023/03/21 10:24:37;;;;;;;0.60;0.60;;;;;;;;;;5109642;28;20015;-51
2023/03/21 10:27:04;;;;;;;1.20;1.00;;;;;;;;;;5110754;27;20442;-49
2023/03/21 10:29:37;;;;;;;0.95;0.88;;;;;;;;;;5109947;27;20028;-52
2023/03/21 10:32:05;;;;;;;0.93;0.90;;;;;;;;;;5110536;27;20468;-52
2023/03/21 10:34:40;;;;;;;1.13;0.90;;;;;;;;;;5109682;28;20051;-50
2023/03/21 10:37:06;;;;;;;1.02;0.93;;;;;;;;;;5103386;27;20111;-52
2023/03/21 10:39:43;;;;;;;1.10;1.00;;;;;;;;;;5109457;28;20031;-50
2023/03/21 10:42:17;;;;;;;1.23;0.80;;;;;;;;;;5108754;27;20069;-53
2023/03/21 10:44:46;;;;;;;0.95;0.80;;;;;;;;;;5101767;28;20304;-52
2023/03/21 10:47:12;;;;;;;1.25;0.90;;;;;;;;;;5105627;27;20024;-50
2023/03/21 10:49:38;;;;;;;0.70;0.60;;;;;;;;;;5104977;27;20064;-51
2023/03/21 10:52:06;;;;;;;0.90;0.90;;;;;;;;;;5100130;28;20039;-51
2023/03/21 10:54:36;;;;;;;0.60;0.60;;;;;;;;;;5109039;27;20027;-51
2023/03/21 10:57:03;;;;;;;0.52;0.52;;;;;;;;;;5109612;28;20024;-53
2023/03/21 10:59:35;;;;;;;0.73;0.73;;;;;;;;;;5096614;27;20077;-49
2023/03/21 11:02:02;;;;;;;0.55;0.55;;;;;;;;;;5109526;28;20103;-52
2023/03/21 11:04:29;;;;;;;0.80;0.80;;;;;;;;;;5107642;27;20532;-53
2023/03/21 11:07:00;;;;;;;0.98;0.88;;;;;;;;;;5105289;28;20062;-53
2023/03/21 11:09:41;;;;;;;1.23;1.13;;;;;;;;;;5114207;27;20043;-54
2023/03/21 11:12:27;;;;;;;0.82;0.82;;;;;;;;;;5107206;28;20028;-53
2023/03/21 11:14:53;;;;;;;1.60;1.10;;;;;;;;;;5109910;28;20040;-51
2023/03/21 11:17:22;;;;;;;1.10;0.90;;;;;;;;;;5106911;27;20081;-50
2023/03/21 11:19:48;;;;;;;1.67;1.00;;;;;;;;;;5109438;28;20138;-51
2023/03/21 11:22:16;;;;;;;1.23;0.82;;;;;;;;;;5112032;27;20066;-51
2023/03/21 11:24:45;;;;;;;1.60;1.00;;;;;;;;;;5115214;27;20529;-53
2023/03/21 11:27:12;;;;;;;1.00;0.80;;;;;;;;;;5109170;27;20038;-54
2023/03/21 11:29:40;;;;;;;0.80;0.75;;;;;;;;;;5106800;28;20030;-49
2023/03/21 11:32:24;;;;;;;1.40;0.90;;;;;;;;;;5106630;28;20037;-50
2023/03/21 11:34:56;;;;;;;1.25;0.70;;;;;;;;;;5108813;27;20449;-49
2023/03/21 11:37:27;;;;;;;1.05;0.95;;;;;;;;;;5107015;28;20027;-51
2023/03/21 11:40:05;;;;;;;0.70;0.70;;;;;;;;;;5110627;27;20473;-52
2023/03/21 11:42:32;;;;;;;0.70;0.70;;;;;;;;;;5104376;28;20039;-51
2023/03/21 11:45:04;;;;;;;1.08;0.70;;;;;;;;;;5109126;28;20398;-52
2023/03/21 11:47:30;;;;;;;1.15;0.85;;;;;;;;;;5106464;28;20036;-52
2023/03/21 11:49:57;;;;;;;1.70;0.95;;;;;;;;;;5109906;27;20035;-51
2023/03/21 11:52:24;;;;;;;0.63;0.60;;;;;;;;;;5106771;28;20031;-49
2023/03/21 11:55:06;;;;;;;2.35;0.82;;;;;;;;;;5109824;27;20444;-52
2023/03/21 11:57:54;;;;;;;1.42;0.63;;;;;;;;;;5087315;28;20058;-51
2023/03/21 12:00:25;;;;;;;0.70;0.70;;;;;;;;;;5090598;28;20035;-50
2023/03/21 12:02:54;;;;;;;1.17;0.70;;;;;;;;;;5104680;27;20102;-51
2023/03/21 12:05:33;;;;;;;0.77;0.65;;;;;;;;;;5108162;28;20023;-53
2023/03/21 12:08:22;;;;;;;0.70;0.45;;;;;;;;;;5100802;28;20031;-53
2023/03/21 12:10:57;;;;;;;0.75;0.50;;;;;;;;;;5054898;28;20023;-52
2023/03/21 12:13:26;;;;;;;1.13;0.60;;;;;;;;;;5113752;27;20031;-50
2023/03/21 12:15:55;;;;;;;0.60;0.52;;;;;;;;;;5109195;27;20027;-49
2023/03/21 12:18:24;;;;;;;0.95;0.80;;;;;;;;;;5114036;27;20498;-50
2023/03/21 12:20:53;;;;;;;0.90;0.60;;;;;;;;;;5107539;28;20077;-52
2023/03/21 12:23:22;;;;;;;0.57;0.57;;;;;;;;;;5119170;27;20106;-53
2023/03/21 12:25:55;;;;;;;0.50;0.50;;;;;;;;;;5115440;27;20027;-51
2023/03/21 12:28:44;;;;;;;0.60;0.55;;;;;;;;;;5115461;27;20106;-51
2023/03/21 12:31:11;;;;;;;0.63;0.60;;;;;;;;;;5077908;27;20036;-51
2023/03/21 12:33:49;;;;;;;1.15;0.40;;;;;;;;;;5116782;27;20035;-51
2023/03/21 12:36:24;;;;;;;0.47;0.47;;;;;;;;;;5090417;27;20028;-53
2023/03/21 12:38:53;;;;;;;1.08;0.50;;;;;;;;;;5121821;27;20485;-54
2023/03/21 12:41:26;;;;;;;0.50;0.50;;;;;;;;;;5107963;27;20045;-51
2023/03/21 12:44:08;;;;;;;0.30;0.30;;;;;;;;;;5109474;27;20020;-53
2023/03/21 12:46:41;;;;;;;0.63;0.43;;;;;;;;;;5086055;28;20028;-52
2023/03/21 12:49:13;;;;;;;0.40;0.40;;;;;;;;;;5086341;28;20510;-50
2023/03/21 12:51:42;;;;;;;0.55;0.52;;;;;;;;;;5104690;28;20348;-50
2023/03/21 12:54:14;;;;;;;0.40;0.40;;;;;;;;;;5095354;28;20023;-49
2023/03/21 12:56:54;;;;;;;0.40;0.40;;;;;;;;;;5087500;28;20043;-53
2023/03/21 12:59:23;;;;;;;0.45;0.40;;;;;;;;;;5094725;28;20032;-53
2023/03/21 13:01:52;;;;;;;0.40;0.40;;;;;;;;;;5105972;28;20070;-50
2023/03/21 13:04:21;;;;;;;0.60;0.32;;;;;;;;;;5088820;28;20487;-51
2023/03/21 13:06:48;;;;;;;0.30;0.30;;;;;;;;;;5087177;28;20383;-51
2023/03/21 13:09:20;;;;;;;0.30;0.30;;;;;;;;;;5085920;28;20407;-54
2023/03/21 13:11:47;;;;;;;1.15;0.50;;;;;;;;;;5086417;28;20503;-50
2023/03/21 13:14:33;;;;;;;0.70;0.70;;;;;;;;;;5103554;28;20042;-53
2023/03/21 13:17:19;;;;;;;0.45;0.45;;;;;;;;;;5105844;28;20044;-51
2023/03/21 13:19:58;;;;;;;0.50;0.40;;;;;;;;;;5113625;27;20102;-51
2023/03/21 13:22:26;;;;;;;0.40;0.40;;;;;;;;;;5125785;27;20075;-52
2023/03/21 13:25:12;;;;;;;1.15;0.80;;;;;;;;;;5126695;27;20095;-54
2023/03/21 13:27:42;;;;;;;0.52;0.50;;;;;;;;;;5080917;27;20456;-51
2023/03/21 13:30:14;;;;;;;1.38;0.50;;;;;;;;;;5124723;27;20023;-52
2023/03/21 13:32:42;;;;;;;0.43;0.43;;;;;;;;;;5125394;27;20118;-51
2023/03/21 13:35:09;;;;;;;0.40;0.40;;;;;;;;;;5126362;27;20176;-54
2023/03/21 13:37:38;;;;;;;1.00;0.57;;;;;;;;;;5125870;28;20038;-54
2023/03/21 13:40:09;;;;;;;0.40;0.40;;;;;;;;;;5126346;27;20019;-53
2023/03/21 13:42:41;;;;;;;0.57;0.55;;;;;;;;;;5126225;28;20031;-51
2023/03/21 13:45:10;;;;;;;0.60;0.50;;;;;;;;;;5126442;28;20019;-50
2023/03/21 13:47:52;;;;;;;0.75;0.43;;;;;;;;;;5126368;28;20027;-50
2023/03/21 13:50:22;;;;;;;0.32;0.30;;;;;;;;;;5126592;27;20024;-52
2023/03/21 13:53:03;;;;;;;0.50;0.30;;;;;;;;;;5126533;27;20031;-51
2023/03/21 13:55:31;;;;;;;0.82;0.50;;;;;;;;;;5126376;28;20391;-50
2023/03/21 13:57:57;;;;;;;0.57;0.47;;;;;;;;;;5126462;28;20102;-53
2023/03/21 14:00:38;;;;;;;0.30;0.30;;;;;;;;;;5107935;28;20038;-53
2023/03/21 14:03:08;;;;;;;0.28;0.28;;;;;;;;;;5126099;28;20445;-51
2023/03/21 14:05:35;;;;;;;0.50;0.50;;;;;;;;;;5123920;28;20132;-51
2023/03/21 14:08:04;;;;;;;0.98;0.60;;;;;;;;;;5105901;28;20106;-51
2023/03/21 14:10:31;;;;;;;0.45;0.40;;;;;;;;;;5105448;28;20032;-50
2023/03/21 14:12:57;;;;;;;1.60;0.40;;;;;;;;;;5105491;28;20031;-51
2023/03/21 14:15:24;;;;;;;0.30;0.30;;;;;;;;;;5105656;28;20024;-50
2023/03/21 14:17:58;;;;;;;0.57;0.50;;;;;;;;;;5106187;28;20039;-50
2023/03/21 14:20:26;;;;;;;0.30;0.30;;;;;;;;;;5105664;28;20028;-51
2023/03/21 14:22:54;;;;;;;0.30;0.30;;;;;;;;;;5105537;28;20019;-52
2023/03/21 14:25:21;;;;;;;0.50;0.40;;;;;;;;;;5106329;28;20023;-51
2023/03/21 14:27:49;;;;;;;0.90;0.40;;;;;;;;;;5105950;28;20517;-50
2023/03/21 14:30:39;;;;;;;0.52;0.40;;;;;;;;;;5105925;28;20048;-54
2023/03/21 14:33:20;;;;;;;0.30;0.30;;;;;;;;;;5092416;28;20043;-51
2023/03/21 14:35:48;;;;;;;0.60;0.40;;;;;;;;;;5105531;28;20498;-50
2023/03/21 14:38:21;;;;;;;0.47;0.40;;;;;;;;;;5105369;28;20023;-53
2023/03/21 14:40:49;;;;;;;0.40;0.40;;;;;;;;;;5105938;28;20023;-54
2023/03/21 14:43:15;;;;;;;0.60;0.45;;;;;;;;;;5107618;28;20107;-53
2023/03/21 14:45:41;;;;;;;0.40;0.40;;;;;;;;;;5109251;28;20016;-50
2023/03/21 14:48:12;;;;;;;0.80;0.45;;;;;;;;;;5108974;28;20016;-54
2023/03/21 14:50:38;;;;;;;0.40;0.40;;;;;;;;;;5108731;28;20031;-51
2023/03/21 14:53:05;;;;;;;0.68;0.40;;;;;;;;;;5108819;28;20039;-51
2023/03/21 14:55:31;;;;;;;0.57;0.40;;;;;;;;;;5108996;28;20024;-47
2023/03/21 14:57:58;;;;;;;1.45;0.40;;;;;;;;;;5108702;28;20499;-52
2023/03/21 15:00:26;;;;;;;0.55;0.43;;;;;;;;;;5108877;28;20026;-48
2023/03/21 15:02:52;;;;;;;0.40;0.40;;;;;;;;;;5108945;28;20020;-49
2023/03/21 15:05:25;;;;;;;0.40;0.40;;;;;;;;;;5109222;28;20027;-49
2023/03/21 15:07:56;;;;;;;0.75;0.55;;;;;;;;;;5108946;28;20749;-50
2023/03/21 15:10:23;;;;;;;0.88;0.50;;;;;;;;;;5109092;28;20134;-50
2023/03/21 15:12:50;;;;;;;0.70;0.47;;;;;;;;;;5108879;28;20525;-49
2023/03/21 15:15:16;;;;;;;1.27;0.60;;;;;;;;;;5108382;28;20059;-48
2023/03/21 15:17:42;;;;;;;0.95;0.50;;;;;;;;;;5108367;28;20088;-49
2023/03/21 15:20:14;;;;;;;0.73;0.60;;;;;;;;;;5108129;28;20023;-51
2023/03/21 15:22:41;;;;;;;0.50;0.50;;;;;;;;;;5108144;28;20081;-51
2023/03/21 15:25:08;;;;;;;0.40;0.40;;;;;;;;;;5108321;28;20020;-49
2023/03/21 15:27:36;;;;;;;0.70;0.55;;;;;;;;;;5108282;28;20098;-49
2023/03/21 15:30:02;;;;;;;0.50;0.50;;;;;;;;;;5108207;28;20031;-49
2023/03/21 15:32:29;;;;;;;0.38;0.38;;;;;;;;;;5108024;28;20034;-50
2023/03/21 15:35:04;;;;;;;0.30;0.30;;;;;;;;;;5107928;28;20439;-51
2023/03/21 15:37:33;;;;;;;0.40;0.40;;;;;;;;;;5108207;28;20027;-52
2023/03/21 15:40:15;;;;;;;0.98;0.60;;;;;;;;;;5108316;28;20102;-51
2023/03/21 15:42:41;;;;;;;0.50;0.50;;;;;;;;;;5107927;28;20495;-50
2023/03/21 15:45:16;;;;;;;0.68;0.57;;;;;;;;;;5107977;28;20095;-51
2023/03/21 15:47:50;;;;;;;0.47;0.47;;;;;;;;;;5108216;28;20136;-51
2023/03/21 15:50:28;;;;;;;0.50;0.50;;;;;;;;;;5107857;28;20687;-49
2023/03/21 15:52:54;;;;;;;0.40;0.40;;;;;;;;;;5107679;28;20036;-49
2023/03/21 15:55:27;;;;;;;0.75;0.60;;;;;;;;;;5108325;28;20110;-49
2023/03/21 15:57:54;;;;;;;0.65;0.55;;;;;;;;;;5107703;28;20439;-51
2023/03/21 16:00:23;;;;;;;0.20;0.20;;;;;;;;;;5108163;28;20023;-50
2023/03/21 16:02:52;;;;;;;1.10;0.75;;;;;;;;;;5108211;28;20023;-50
2023/03/21 16:05:30;;;;;;;0.50;0.50;;;;;;;;;;5107760;28;20505;-53
2023/03/21 16:08:05;;;;;;;0.47;0.40;;;;;;;;;;5107458;28;20032;-51
2023/03/21 16:10:33;;;;;;;0.60;0.45;;;;;;;;;;5109581;27;20034;-50
2023/03/21 16:12:59;;;;;;;0.40;0.40;;;;;;;;;;5127656;27;20541;-51
2023/03/21 16:15:26;;;;;;;0.40;0.40;;;;;;;;;;5127792;27;20031;-50
2023/03/21 16:18:00;;;;;;;0.60;0.50;;;;;;;;;;5126703;27;20027;-52
2023/03/21 16:20:28;;;;;;;0.60;0.50;;;;;;;;;;5127321;27;20031;-50
2023/03/21 16:22:54;;;;;;;0.60;0.50;;;;;;;;;;5127605;27;20487;-50
2023/03/21 16:25:21;;;;;;;0.50;0.50;;;;;;;;;;5128132;27;20023;-51
2023/03/21 16:27:48;;;;;;;0.73;0.50;;;;;;;;;;5128577;27;20103;-49
2023/03/21 16:30:15;;;;;;;0.63;0.50;;;;;;;;;;5127734;27;20223;-52
2023/03/21 16:32:41;;;;;;;0.50;0.50;;;;;;;;;;5127514;27;20042;-51
2023/03/21 16:35:07;;;;;;;0.60;0.50;;;;;;;;;;5127132;27;20027;-49
2023/03/21 16:37:33;;;;;;;1.13;0.77;;;;;;;;;;5127589;27;20031;-50
2023/03/21 16:39:59;;;;;;;0.90;0.50;;;;;;;;;;5127272;27;20447;-50
2023/03/21 16:42:26;;;;;;;0.88;0.60;;;;;;;;;;5127335;27;20510;-50
2023/03/21 16:44:51;;;;;;;1.02;0.60;;;;;;;;;;5127995;27;20033;-51
2023/03/21 16:47:19;;;;;;;0.90;0.60;;;;;;;;;;5128241;27;20478;-51
2023/03/21 16:49:46;;;;;;;0.50;0.50;;;;;;;;;;5126828;27;20038;-50
2023/03/21 16:52:13;;;;;;;0.98;0.60;;;;;;;;;;5127209;27;20636;-51
2023/03/21 16:54:40;;;;;;;0.55;0.55;;;;;;;;;;5127204;27;20052;-52
2023/03/21 16:57:07;;;;;;;1.13;0.60;;;;;;;;;;5125844;27;20031;-50
2023/03/21 16:59:37;;;;;;;0.50;0.50;;;;;;;;;;5126956;27;20513;-48
2023/03/21 17:02:15;;;;;;;1.90;0.60;;;;;;;;;;5126807;27;20023;-47
2023/03/21 17:04:41;;;;;;;1.60;0.70;;;;;;;;;;5126299;27;20102;-49
2023/03/21 17:07:13;;;;;;;0.88;0.60;;;;;;;;;;5125647;27;20565;-51
2023/03/21 17:09:41;;;;;;;1.02;0.70;;;;;;;;;;5126833;27;20027;-47
2023/03/21 17:12:12;;;;;;;0.70;0.70;;;;;;;;;;5126612;27;20031;-48
2023/03/21 17:14:38;;;;;;;0.82;0.73;;;;;;;;;;5127200;27;20019;-52
2023/03/21 17:17:04;;;;;;;1.63;1.00;;;;;;;;;;5126669;27;20031;-52
2023/03/21 17:19:31;;;;;;;1.02;0.93;;;;;;;;;;5126595;27;20046;-52
2023/03/21 17:21:57;;;;;;;1.60;1.27;;;;;;;;;;5126657;27;20034;-50
2023/03/21 17:24:25;;;;;;;1.60;1.30;;;;;;;;;;5126749;27;20019;-50
2023/03/21 17:26:51;;;;;;;2.22;1.65;;;;;;;;;;5127912;27;20023;-50
2023/03/21 17:29:17;;;;;;;3.30;1.83;;;;;;;;;;5126381;27;20035;-50
2023/03/21 17:31:46;;;;;;;1.75;1.50;;;;;;;;;;5126289;27;20507;-51
2023/03/21 17:34:13;;;;;;;1.85;1.40;;;;;;;;;;5126437;27;20054;-53
2023/03/21 17:36:40;;;;;;;1.55;1.05;;;;;;;;;;5126467;27;20031;-51
2023/03/21 17:39:09;;;;;;;1.20;1.10;;;;;;;;;;5126507;28;20031;-53
2023/03/21 17:41:35;;;;;;;1.77;1.10;;;;;;;;;;5124181;28;20110;-51
2023/03/21 17:44:01;;;;;;;1.52;1.10;;;;;;;;;;5127379;28;20019;-51
2023/03/21 17:46:35;;;;;;;0.95;0.80;;;;;;;;;;5126284;28;20026;-52
2023/03/21 17:49:01;;;;;;;1.10;0.90;;;;;;;;;;5126257;28;20015;-52
2023/03/21 17:51:29;;;;;;;0.90;0.90;;;;;;;;;;5124951;28;20035;-51
2023/03/21 17:53:56;;;;;;;0.80;0.80;;;;;;;;;;5134376;27;20049;-53
2023/03/21 17:56:26;;;;;;;1.58;1.17;;;;;;;;;;5135173;27;20034;-53
2023/03/21 17:58:55;;;;;;;1.65;1.20;;;;;;;;;;5121181;27;20529;-52
2023/03/21 18:01:22;;;;;;;2.92;1.40;;;;;;;;;;5108924;28;20454;-49
2023/03/21 18:03:48;;;;;;;1.55;1.10;;;;;;;;;;5125606;28;20023;-52
2023/03/21 18:06:19;;;;;;;2.45;1.58;;;;;;;;;;5122766;28;20038;-53
2023/03/21 18:08:45;;;;;;;2.47;1.40;;;;;;;;;;5126088;28;20019;-50
2023/03/21 18:11:11;;;;;;;2.70;1.50;;;;;;;;;;5126397;28;20031;-52
2023/03/21 18:13:38;;;;;;;2.15;1.35;;;;;;;;;;5124466;28;20035;-49
2023/03/21 18:16:05;;;;;;;1.70;1.20;;;;;;;;;;5126055;27;20070;-51
2023/03/21 18:18:31;;;;;;;1.70;1.10;;;;;;;;;;5129874;27;20038;-53
2023/03/21 18:20:57;;;;;;;1.00;0.90;;;;;;;;;;5130298;27;20122;-53
2023/03/21 18:23:23;;;;;;;1.13;0.93;;;;;;;;;;5129586;27;20027;-53
2023/03/21 18:25:51;;;;;;;1.33;0.80;;;;;;;;;;5130893;27;20032;-53
2023/03/21 18:28:17;;;;;;;0.90;0.65;;;;;;;;;;5125832;27;20020;-52
2023/03/21 18:30:43;;;;;;;0.88;0.80;;;;;;;;;;5129174;27;20083;-51
2023/03/21 18:33:11;;;;;;;0.80;0.70;;;;;;;;;;5128564;27;20518;-52
2023/03/21 18:35:37;;;;;;;1.00;0.80;;;;;;;;;;5129235;27;20498;-49
2023/03/21 18:38:05;;;;;;;0.68;0.63;;;;;;;;;;5128749;27;20088;-53
2023/03/21 18:40:31;;;;;;;2.33;1.38;;;;;;;;;;5127230;27;20112;-50
2023/03/21 18:42:57;;;;;;;4.40;2.63;;;;;;;;;;5127859;27;20025;-51
2023/03/21 18:45:24;;;;;;;3.90;2.60;;;;;;;;;;5126638;27;20084;-50
2023/03/21 18:47:51;;;;;;;3.33;1.90;;;;;;;;;;5125715;27;20011;-52
2023/03/21 18:50:18;;;;;;;2.10;1.45;;;;;;;;;;5108319;27;20039;-53
2023/03/21 18:52:44;;;;;;;2.17;1.52;;;;;;;;;;5127288;27;20425;-53
2023/03/21 18:55:13;;;;;;;1.83;1.58;;;;;;;;;;5125202;27;20042;-51
2023/03/21 18:57:39;;;;;;;2.60;1.33;;;;;;;;;;5126806;27;20379;-54
2023/03/21 19:00:11;;;;;;;2.20;1.60;;;;;;;;;;5124375;27;20087;-51
2023/03/21 19:02:37;;;;;;;2.42;1.27;;;;;;;;;;5126259;27;20019;-53
2023/03/21 19:05:03;;;;;;;2.95;1.83;;;;;;;;;;5122777;27;20376;-52
2023/03/21 19:07:30;;;;;;;3.17;2.10;;;;;;;;;;5125618;27;20015;-50
2023/03/21 19:09:57;;;;;;;3.72;2.33;;;;;;;;;;5123940;27;20034;-52
2023/03/21 19:12:24;;;;;;;7.38;3.63;;;;;;;;;;5126099;27;20114;-51
2023/03/21 19:14:50;;;;;;;11.35;4.85;;;;;;;;;;5124459;27;20486;-48
2023/03/21 19:17:16;;;;;;;10.77;4.47;;;;;;;;;;5124567;27;20042;-49
2023/03/21 19:19:42;;;;;;;6.88;3.47;;;;;;;;;;5123385;27;20527;-51
2023/03/21 19:22:08;;;;;;;8.23;3.60;;;;;;;;;;5126163;27;20027;-49
2023/03/21 19:24:34;;;;;;;6.80;3.28;;;;;;;;;;5123616;27;20090;-50
2023/03/21 19:27:00;;;;;;;5.43;2.92;;;;;;;;;;5124871;27;20023;-49
2023/03/21 19:29:27;;;;;;;5.30;3.17;;;;;;;;;;5122373;27;20035;-46
2023/03/21 19:31:53;;;;;;;5.88;3.30;;;;;;;;;;5125806;27;20027;-49
2023/03/21 19:34:19;;;;;;;6.07;2.78;;;;;;;;;;5124302;27;20110;-48
2023/03/21 19:36:46;;;;;;;3.22;2.17;;;;;;;;;;5126875;27;20042;-47
2023/03/21 19:39:12;;;;;;;3.78;2.60;;;;;;;;;;5121958;27;20118;-49
2023/03/21 19:41:38;;;;;;;3.75;2.30;;;;;;;;;;5126943;27;20402;-48
2023/03/21 19:44:05;;;;;;;2.95;1.90;;;;;;;;;;5124446;27;20288;-49
2023/03/21 19:46:31;;;;;;;4.07;2.40;;;;;;;;;;5126064;27;20118;-48
2023/03/21 19:48:57;;;;;;;4.35;2.28;;;;;;;;;;5123432;27;20106;-50
2023/03/21 19:51:24;;;;;;;3.55;2.42;;;;;;;;;;5126376;27;20027;-47
2023/03/21 19:53:50;;;;;;;5.05;3.10;;;;;;;;;;5124434;27;20053;-48
2023/03/21 19:56:18;;;;;;;4.85;3.00;;;;;;;;;;5125919;27;20024;-49
2023/03/21 19:58:46;;;;;;;4.68;2.90;;;;;;;;;;5125680;27;20033;-48
2023/03/21 20:01:12;;;;;;;4.38;3.00;;;;;;;;;;5126370;27;20027;-47